sensor_id;sensor_type;location;lat;lon;timestamp;P1;durP1;ratioP1;P2;durP2;ratioP2
81176;SDS011;70786;48.272;14.200;2023-09-19T00:01:06;2.45;;;1.50;;
81176;SDS011;70786;48.272;14.200;2023-09-19T00:03:34;1.30;;;1.20;;
81176;SDS011;70786;48.272;14.200;2023-09-19T00:06:03;2.63;;;1.23;;
81176;SDS011;70786;48.272;14.200;2023-09-19T00:08:30;2.95;;;1.30;;
81176;SDS011;70786;48.272;14.200;2023-09-19T00:10:56;1.52;;;1.25;;
81176;SDS011;70786;48.272;14.200;2023-09-19T00:13:24;4.03;;;1.55;;
81176;SDS011;70786;48.272;14.200;2023-09-19T00:15:50;2.08;;;1.50;;
81176;SDS011;70786;48.272;14.200;2023-09-19T00:18:16;2.67;;;1.20;;
81176;SDS011;70786;48.272;14.200;2023-09-19T00:20:44;2.88;;;1.33;;
81176;SDS011;70786;48.272;14.200;2023-09-19T00:23:13;3.30;;;1.40;;
81176;SDS011;70786;48.272;14.200;2023-09-19T00:25:39;3.47;;;1.60;;
81176;SDS011;70786;48.272;14.200;2023-09-19T00:28:05;2.47;;;1.50;;
81176;SDS011;70786;48.272;14.200;2023-09-19T00:30:33;5.20;;;2.22;;
81176;SDS011;70786;48.272;14.200;2023-09-19T00:32:58;3.15;;;1.52;;
81176;SDS011;70786;48.272;14.200;2023-09-19T00:35:24;2.80;;;1.58;;
81176;SDS011;70786;48.272;14.200;2023-09-19T00:37:50;2.45;;;1.80;;
81176;SDS011;70786;48.272;14.200;2023-09-19T00:40:16;4.18;;;2.03;;
81176;SDS011;70786;48.272;14.200;2023-09-19T00:42:45;3.63;;;2.08;;
81176;SDS011;70786;48.272;14.200;2023-09-19T00:45:12;2.58;;;2.03;;
81176;SDS011;70786;48.272;14.200;2023-09-19T00:47:42;2.88;;;1.83;;
81176;SDS011;70786;48.272;14.200;2023-09-19T00:50:08;3.42;;;1.90;;
81176;SDS011;70786;48.272;14.200;2023-09-19T00:52:34;3.33;;;1.88;;
81176;SDS011;70786;48.272;14.200;2023-09-19T00:55:02;3.10;;;2.08;;
81176;SDS011;70786;48.272;14.200;2023-09-19T00:57:28;3.25;;;1.58;;
81176;SDS011;70786;48.272;14.200;2023-09-19T00:59:58;2.20;;;1.90;;
81176;SDS011;70786;48.272;14.200;2023-09-19T01:02:24;2.72;;;2.08;;
81176;SDS011;70786;48.272;14.200;2023-09-19T01:04:52;5.45;;;2.33;;
81176;SDS011;70786;48.272;14.200;2023-09-19T01:07:18;3.72;;;2.00;;
81176;SDS011;70786;48.272;14.200;2023-09-19T01:09:44;4.55;;;2.08;;
81176;SDS011;70786;48.272;14.200;2023-09-19T01:12:10;2.88;;;1.95;;
81176;SDS011;70786;48.272;14.200;2023-09-19T01:17:15;4.82;;;2.30;;
81176;SDS011;70786;48.272;14.200;2023-09-19T01:20:03;4.82;;;2.47;;
81176;SDS011;70786;48.272;14.200;2023-09-19T01:22:53;2.83;;;2.00;;
81176;SDS011;70786;48.272;14.200;2023-09-19T01:30:20;3.50;;;2.35;;
81176;SDS011;70786;48.272;14.200;2023-09-19T01:32:49;2.40;;;1.92;;
81176;SDS011;70786;48.272;14.200;2023-09-19T01:35:17;2.20;;;1.45;;
81176;SDS011;70786;48.272;14.200;2023-09-19T01:37:44;2.13;;;1.10;;
81176;SDS011;70786;48.272;14.200;2023-09-19T01:40:10;2.45;;;1.35;;
81176;SDS011;70786;48.272;14.200;2023-09-19T01:45:34;1.40;;;1.00;;
81176;SDS011;70786;48.272;14.200;2023-09-19T01:48:05;2.13;;;1.45;;
81176;SDS011;70786;48.272;14.200;2023-09-19T01:50:42;2.47;;;0.93;;
81176;SDS011;70786;48.272;14.200;2023-09-19T01:53:15;1.88;;;1.10;;
81176;SDS011;70786;48.272;14.200;2023-09-19T01:55:46;1.50;;;0.90;;
81176;SDS011;70786;48.272;14.200;2023-09-19T02:00:40;2.13;;;1.10;;
81176;SDS011;70786;48.272;14.200;2023-09-19T02:03:10;2.25;;;1.20;;
81176;SDS011;70786;48.272;14.200;2023-09-19T02:05:40;4.25;;;0.93;;
81176;SDS011;70786;48.272;14.200;2023-09-19T02:08:08;1.55;;;0.80;;
81176;SDS011;70786;48.272;14.200;2023-09-19T02:10:52;2.38;;;0.85;;
81176;SDS011;70786;48.272;14.200;2023-09-19T02:13:18;1.63;;;0.68;;
81176;SDS011;70786;48.272;14.200;2023-09-19T02:15:45;1.20;;;0.73;;
81176;SDS011;70786;48.272;14.200;2023-09-19T02:18:18;1.85;;;0.70;;
81176;SDS011;70786;48.272;14.200;2023-09-19T02:20:46;1.30;;;0.70;;
81176;SDS011;70786;48.272;14.200;2023-09-19T02:23:16;2.15;;;0.80;;
81176;SDS011;70786;48.272;14.200;2023-09-19T02:25:51;1.98;;;1.00;;
81176;SDS011;70786;48.272;14.200;2023-09-19T02:28:20;2.92;;;1.52;;
81176;SDS011;70786;48.272;14.200;2023-09-19T02:30:49;1.95;;;1.40;;
81176;SDS011;70786;48.272;14.200;2023-09-19T02:33:16;3.35;;;1.20;;
81176;SDS011;70786;48.272;14.200;2023-09-19T02:35:42;3.25;;;1.83;;
81176;SDS011;70786;48.272;14.200;2023-09-19T02:38:08;3.10;;;1.85;;
81176;SDS011;70786;48.272;14.200;2023-09-19T02:40:38;3.33;;;1.65;;
81176;SDS011;70786;48.272;14.200;2023-09-19T02:43:04;2.63;;;1.65;;
81176;SDS011;70786;48.272;14.200;2023-09-19T02:45:37;2.53;;;1.65;;
81176;SDS011;70786;48.272;14.200;2023-09-19T02:48:05;3.25;;;2.33;;
81176;SDS011;70786;48.272;14.200;2023-09-19T02:50:33;3.25;;;1.80;;
81176;SDS011;70786;48.272;14.200;2023-09-19T02:52:59;2.10;;;1.45;;
81176;SDS011;70786;48.272;14.200;2023-09-19T02:55:25;2.40;;;1.48;;
81176;SDS011;70786;48.272;14.200;2023-09-19T02:57:53;3.60;;;2.17;;
81176;SDS011;70786;48.272;14.200;2023-09-19T03:00:22;2.15;;;1.70;;
81176;SDS011;70786;48.272;14.200;2023-09-19T03:02:53;2.53;;;1.67;;
81176;SDS011;70786;48.272;14.200;2023-09-19T03:05:19;2.83;;;1.58;;
81176;SDS011;70786;48.272;14.200;2023-09-19T03:07:47;4.15;;;1.90;;
81176;SDS011;70786;48.272;14.200;2023-09-19T03:10:16;3.67;;;1.83;;
81176;SDS011;70786;48.272;14.200;2023-09-19T03:12:43;3.30;;;1.83;;
81176;SDS011;70786;48.272;14.200;2023-09-19T03:15:11;3.30;;;1.60;;
81176;SDS011;70786;48.272;14.200;2023-09-19T03:17:40;4.43;;;2.28;;
81176;SDS011;70786;48.272;14.200;2023-09-19T03:20:08;3.45;;;1.65;;
81176;SDS011;70786;48.272;14.200;2023-09-19T03:22:37;4.55;;;1.65;;
81176;SDS011;70786;48.272;14.200;2023-09-19T03:25:06;2.33;;;1.38;;
81176;SDS011;70786;48.272;14.200;2023-09-19T03:27:36;3.25;;;1.67;;
81176;SDS011;70786;48.272;14.200;2023-09-19T03:30:03;5.63;;;2.30;;
81176;SDS011;70786;48.272;14.200;2023-09-19T03:32:34;4.25;;;1.77;;
81176;SDS011;70786;48.272;14.200;2023-09-19T03:35:00;3.97;;;2.20;;
81176;SDS011;70786;48.272;14.200;2023-09-19T03:37:26;6.00;;;2.40;;
81176;SDS011;70786;48.272;14.200;2023-09-19T03:39:52;3.17;;;2.00;;
81176;SDS011;70786;48.272;14.200;2023-09-19T03:42:18;2.90;;;1.90;;
81176;SDS011;70786;48.272;14.200;2023-09-19T03:44:51;5.05;;;2.28;;
81176;SDS011;70786;48.272;14.200;2023-09-19T03:47:18;4.05;;;3.03;;
81176;SDS011;70786;48.272;14.200;2023-09-19T03:49:44;2.95;;;2.30;;
81176;SDS011;70786;48.272;14.200;2023-09-19T03:52:13;3.90;;;2.33;;
81176;SDS011;70786;48.272;14.200;2023-09-19T03:54:41;3.70;;;2.00;;
81176;SDS011;70786;48.272;14.200;2023-09-19T03:57:08;3.67;;;2.20;;
81176;SDS011;70786;48.272;14.200;2023-09-19T03:59:35;3.80;;;2.15;;
81176;SDS011;70786;48.272;14.200;2023-09-19T04:02:01;4.85;;;2.63;;
81176;SDS011;70786;48.272;14.200;2023-09-19T04:04:27;2.75;;;2.00;;
81176;SDS011;70786;48.272;14.200;2023-09-19T04:06:55;5.07;;;2.17;;
81176;SDS011;70786;48.272;14.200;2023-09-19T04:09:21;4.60;;;2.67;;
81176;SDS011;70786;48.272;14.200;2023-09-19T04:11:50;4.18;;;2.65;;
81176;SDS011;70786;48.272;14.200;2023-09-19T04:14:17;4.38;;;2.75;;
81176;SDS011;70786;48.272;14.200;2023-09-19T04:16:43;3.47;;;2.50;;
81176;SDS011;70786;48.272;14.200;2023-09-19T04:19:11;4.65;;;2.85;;
81176;SDS011;70786;48.272;14.200;2023-09-19T04:21:38;3.90;;;2.33;;
81176;SDS011;70786;48.272;14.200;2023-09-19T04:24:04;4.50;;;2.47;;
81176;SDS011;70786;48.272;14.200;2023-09-19T04:26:30;4.85;;;2.50;;
81176;SDS011;70786;48.272;14.200;2023-09-19T04:28:56;4.88;;;2.28;;
81176;SDS011;70786;48.272;14.200;2023-09-19T04:31:22;3.92;;;2.45;;
81176;SDS011;70786;48.272;14.200;2023-09-19T04:33:48;4.85;;;2.60;;
81176;SDS011;70786;48.272;14.200;2023-09-19T04:36:14;4.32;;;2.53;;
81176;SDS011;70786;48.272;14.200;2023-09-19T04:38:40;3.30;;;2.45;;
81176;SDS011;70786;48.272;14.200;2023-09-19T04:41:07;4.93;;;2.70;;
81176;SDS011;70786;48.272;14.200;2023-09-19T04:43:33;2.83;;;2.00;;
81176;SDS011;70786;48.272;14.200;2023-09-19T04:45:59;3.95;;;2.20;;
81176;SDS011;70786;48.272;14.200;2023-09-19T04:48:26;3.47;;;2.38;;
81176;SDS011;70786;48.272;14.200;2023-09-19T04:50:52;4.00;;;2.67;;
81176;SDS011;70786;48.272;14.200;2023-09-19T04:53:23;4.20;;;2.55;;
81176;SDS011;70786;48.272;14.200;2023-09-19T04:55:52;4.40;;;2.45;;
81176;SDS011;70786;48.272;14.200;2023-09-19T04:58:23;4.13;;;2.17;;
81176;SDS011;70786;48.272;14.200;2023-09-19T05:00:49;3.00;;;2.00;;
81176;SDS011;70786;48.272;14.200;2023-09-19T05:03:16;3.95;;;2.10;;
81176;SDS011;70786;48.272;14.200;2023-09-19T05:05:43;2.80;;;1.83;;
81176;SDS011;70786;48.272;14.200;2023-09-19T05:08:14;3.88;;;1.65;;
81176;SDS011;70786;48.272;14.200;2023-09-19T05:10:40;2.92;;;1.48;;
81176;SDS011;70786;48.272;14.200;2023-09-19T05:13:06;2.97;;;1.60;;
81176;SDS011;70786;48.272;14.200;2023-09-19T05:15:33;3.78;;;1.70;;
81176;SDS011;70786;48.272;14.200;2023-09-19T05:18:01;1.73;;;1.35;;
81176;SDS011;70786;48.272;14.200;2023-09-19T05:20:29;12.55;;;2.10;;
81176;SDS011;70786;48.272;14.200;2023-09-19T05:23:03;3.53;;;1.98;;
81176;SDS011;70786;48.272;14.200;2023-09-19T05:25:34;2.10;;;1.70;;
81176;SDS011;70786;48.272;14.200;2023-09-19T05:28:07;3.15;;;1.67;;
81176;SDS011;70786;48.272;14.200;2023-09-19T05:30:34;3.42;;;1.50;;
81176;SDS011;70786;48.272;14.200;2023-09-19T05:33:02;2.47;;;1.75;;
81176;SDS011;70786;48.272;14.200;2023-09-19T05:35:37;2.00;;;1.60;;
81176;SDS011;70786;48.272;14.200;2023-09-19T05:38:05;1.98;;;1.50;;
81176;SDS011;70786;48.272;14.200;2023-09-19T05:40:36;3.47;;;1.60;;
81176;SDS011;70786;48.272;14.200;2023-09-19T05:43:09;3.55;;;1.42;;
81176;SDS011;70786;48.272;14.200;2023-09-19T05:45:40;2.35;;;1.30;;
81176;SDS011;70786;48.272;14.200;2023-09-19T05:48:10;1.88;;;1.35;;
81176;SDS011;70786;48.272;14.200;2023-09-19T05:50:37;3.00;;;1.27;;
81176;SDS011;70786;48.272;14.200;2023-09-19T05:53:04;1.73;;;1.30;;
81176;SDS011;70786;48.272;14.200;2023-09-19T05:55:32;3.28;;;1.20;;
81176;SDS011;70786;48.272;14.200;2023-09-19T05:57:58;2.83;;;1.42;;
81176;SDS011;70786;48.272;14.200;2023-09-19T06:00:25;1.95;;;1.10;;
81176;SDS011;70786;48.272;14.200;2023-09-19T06:02:53;1.98;;;1.30;;
81176;SDS011;70786;48.272;14.200;2023-09-19T06:05:20;1.85;;;1.20;;
81176;SDS011;70786;48.272;14.200;2023-09-19T06:07:51;1.85;;;1.08;;
81176;SDS011;70786;48.272;14.200;2023-09-19T06:10:17;1.45;;;1.00;;
81176;SDS011;70786;48.272;14.200;2023-09-19T06:12:44;2.35;;;1.10;;
81176;SDS011;70786;48.272;14.200;2023-09-19T06:15:14;3.65;;;1.50;;
81176;SDS011;70786;48.272;14.200;2023-09-19T06:20:14;2.05;;;1.00;;
81176;SDS011;70786;48.272;14.200;2023-09-19T06:22:43;2.17;;;0.93;;
81176;SDS011;70786;48.272;14.200;2023-09-19T06:25:13;2.35;;;1.10;;
81176;SDS011;70786;48.272;14.200;2023-09-19T06:27:47;1.40;;;1.00;;
81176;SDS011;70786;48.272;14.200;2023-09-19T06:30:23;2.28;;;1.08;;
81176;SDS011;70786;48.272;14.200;2023-09-19T06:32:54;3.25;;;1.10;;
81176;SDS011;70786;48.272;14.200;2023-09-19T06:35:20;4.85;;;1.20;;
81176;SDS011;70786;48.272;14.200;2023-09-19T06:37:47;3.78;;;1.88;;
81176;SDS011;70786;48.272;14.200;2023-09-19T06:40:13;2.70;;;1.20;;
81176;SDS011;70786;48.272;14.200;2023-09-19T06:42:42;1.85;;;1.20;;
81176;SDS011;70786;48.272;14.200;2023-09-19T06:45:17;3.70;;;1.40;;
81176;SDS011;70786;48.272;14.200;2023-09-19T06:47:44;1.85;;;1.10;;
81176;SDS011;70786;48.272;14.200;2023-09-19T06:50:20;2.35;;;0.90;;
81176;SDS011;70786;48.272;14.200;2023-09-19T06:52:55;3.45;;;1.00;;
81176;SDS011;70786;48.272;14.200;2023-09-19T06:55:43;2.17;;;1.10;;
81176;SDS011;70786;48.272;14.200;2023-09-19T06:58:13;3.17;;;1.10;;
81176;SDS011;70786;48.272;14.200;2023-09-19T07:00:39;2.92;;;1.40;;
81176;SDS011;70786;48.272;14.200;2023-09-19T07:03:07;2.92;;;1.20;;
81176;SDS011;70786;48.272;14.200;2023-09-19T07:05:37;3.80;;;1.17;;
81176;SDS011;70786;48.272;14.200;2023-09-19T07:08:04;2.08;;;1.20;;
81176;SDS011;70786;48.272;14.200;2023-09-19T07:10:32;2.00;;;1.23;;
81176;SDS011;70786;48.272;14.200;2023-09-19T07:13:01;1.90;;;1.15;;
81176;SDS011;70786;48.272;14.200;2023-09-19T07:15:27;2.35;;;1.08;;
81176;SDS011;70786;48.272;14.200;2023-09-19T07:17:54;2.78;;;1.10;;
81176;SDS011;70786;48.272;14.200;2023-09-19T07:20:25;1.60;;;1.05;;
81176;SDS011;70786;48.272;14.200;2023-09-19T07:22:52;1.92;;;1.20;;
81176;SDS011;70786;48.272;14.200;2023-09-19T07:25:20;2.80;;;1.30;;
81176;SDS011;70786;48.272;14.200;2023-09-19T07:27:52;1.98;;;1.25;;
81176;SDS011;70786;48.272;14.200;2023-09-19T07:30:20;1.88;;;1.05;;
81176;SDS011;70786;48.272;14.200;2023-09-19T07:32:46;2.30;;;1.38;;
81176;SDS011;70786;48.272;14.200;2023-09-19T07:35:15;3.95;;;1.20;;
81176;SDS011;70786;48.272;14.200;2023-09-19T07:37:41;2.00;;;1.15;;
81176;SDS011;70786;48.272;14.200;2023-09-19T07:40:07;2.42;;;1.30;;
81176;SDS011;70786;48.272;14.200;2023-09-19T07:42:41;3.55;;;1.50;;
81176;SDS011;70786;48.272;14.200;2023-09-19T07:45:10;1.52;;;1.00;;
81176;SDS011;70786;48.272;14.200;2023-09-19T07:47:48;3.03;;;1.63;;
81176;SDS011;70786;48.272;14.200;2023-09-19T07:50:18;2.28;;;1.10;;
81176;SDS011;70786;48.272;14.200;2023-09-19T07:52:44;1.92;;;1.02;;
81176;SDS011;70786;48.272;14.200;2023-09-19T07:55:13;2.08;;;1.30;;
81176;SDS011;70786;48.272;14.200;2023-09-19T07:57:42;3.70;;;1.33;;
81176;SDS011;70786;48.272;14.200;2023-09-19T08:00:09;1.65;;;1.10;;
81176;SDS011;70786;48.272;14.200;2023-09-19T08:02:41;4.43;;;1.52;;
81176;SDS011;70786;48.272;14.200;2023-09-19T08:05:07;1.55;;;0.90;;
81176;SDS011;70786;48.272;14.200;2023-09-19T08:07:40;1.30;;;1.00;;
81176;SDS011;70786;48.272;14.200;2023-09-19T08:10:06;3.03;;;1.13;;
81176;SDS011;70786;48.272;14.200;2023-09-19T08:12:39;2.85;;;1.40;;
81176;SDS011;70786;48.272;14.200;2023-09-19T08:15:14;2.67;;;1.10;;
81176;SDS011;70786;48.272;14.200;2023-09-19T08:17:40;2.80;;;1.30;;
81176;SDS011;70786;48.272;14.200;2023-09-19T08:20:06;2.10;;;1.30;;
81176;SDS011;70786;48.272;14.200;2023-09-19T08:22:32;2.28;;;1.60;;
81176;SDS011;70786;48.272;14.200;2023-09-19T08:24:58;2.20;;;1.30;;
81176;SDS011;70786;48.272;14.200;2023-09-19T08:27:24;2.17;;;1.40;;
81176;SDS011;70786;48.272;14.200;2023-09-19T08:29:53;2.00;;;1.00;;
81176;SDS011;70786;48.272;14.200;2023-09-19T08:32:19;4.43;;;1.30;;
81176;SDS011;70786;48.272;14.200;2023-09-19T08:34:49;2.33;;;1.27;;
81176;SDS011;70786;48.272;14.200;2023-09-19T08:37:15;1.40;;;1.00;;
81176;SDS011;70786;48.272;14.200;2023-09-19T08:39:44;2.38;;;1.15;;
81176;SDS011;70786;48.272;14.200;2023-09-19T08:42:10;2.08;;;1.02;;
81176;SDS011;70786;48.272;14.200;2023-09-19T08:44:39;2.67;;;1.10;;
81176;SDS011;70786;48.272;14.200;2023-09-19T08:47:08;2.80;;;1.08;;
81176;SDS011;70786;48.272;14.200;2023-09-19T08:52:05;1.35;;;0.93;;
81176;SDS011;70786;48.272;14.200;2023-09-19T08:54:37;1.60;;;1.25;;
81176;SDS011;70786;48.272;14.200;2023-09-19T08:57:05;1.80;;;0.98;;
81176;SDS011;70786;48.272;14.200;2023-09-19T08:59:33;1.08;;;0.75;;
81176;SDS011;70786;48.272;14.200;2023-09-19T09:02:00;2.10;;;1.10;;
81176;SDS011;70786;48.272;14.200;2023-09-19T09:04:26;1.83;;;1.20;;
81176;SDS011;70786;48.272;14.200;2023-09-19T09:06:52;2.83;;;1.05;;
81176;SDS011;70786;48.272;14.200;2023-09-19T09:09:20;2.22;;;0.80;;
81176;SDS011;70786;48.272;14.200;2023-09-19T09:11:47;1.10;;;0.70;;
81176;SDS011;70786;48.272;14.200;2023-09-19T09:14:13;3.13;;;1.10;;
81176;SDS011;70786;48.272;14.200;2023-09-19T09:16:39;1.40;;;0.80;;
81176;SDS011;70786;48.272;14.200;2023-09-19T09:19:05;1.63;;;0.80;;
81176;SDS011;70786;48.272;14.200;2023-09-19T09:21:30;1.90;;;1.00;;
81176;SDS011;70786;48.272;14.200;2023-09-19T09:26:45;4.90;;;1.00;;
81176;SDS011;70786;48.272;14.200;2023-09-19T09:29:15;2.38;;;1.10;;
81176;SDS011;70786;48.272;14.200;2023-09-19T09:31:41;1.88;;;0.95;;
81176;SDS011;70786;48.272;14.200;2023-09-19T09:34:08;5.47;;;0.98;;
81176;SDS011;70786;48.272;14.200;2023-09-19T09:36:35;1.48;;;0.77;;
81176;SDS011;70786;48.272;14.200;2023-09-19T09:39:02;2.05;;;1.10;;
81176;SDS011;70786;48.272;14.200;2023-09-19T09:41:41;2.53;;;1.00;;
81176;SDS011;70786;48.272;14.200;2023-09-19T09:44:14;1.85;;;0.88;;
81176;SDS011;70786;48.272;14.200;2023-09-19T09:46:44;2.33;;;1.10;;
81176;SDS011;70786;48.272;14.200;2023-09-19T09:49:22;1.25;;;0.90;;
81176;SDS011;70786;48.272;14.200;2023-09-19T09:52:09;1.42;;;0.73;;
81176;SDS011;70786;48.272;14.200;2023-09-19T09:55:01;1.27;;;0.85;;
81176;SDS011;70786;48.272;14.200;2023-09-19T09:57:30;2.72;;;0.80;;
81176;SDS011;70786;48.272;14.200;2023-09-19T09:59:57;1.30;;;0.90;;
81176;SDS011;70786;48.272;14.200;2023-09-19T10:02:42;2.53;;;0.68;;
81176;SDS011;70786;48.272;14.200;2023-09-19T10:05:14;2.83;;;0.88;;
81176;SDS011;70786;48.272;14.200;2023-09-19T10:08:10;1.58;;;0.95;;
81176;SDS011;70786;48.272;14.200;2023-09-19T10:10:38;2.22;;;0.90;;
81176;SDS011;70786;48.272;14.200;2023-09-19T10:13:08;1.00;;;0.80;;
81176;SDS011;70786;48.272;14.200;2023-09-19T10:15:37;2.20;;;0.90;;
81176;SDS011;70786;48.272;14.200;2023-09-19T10:18:06;0.80;;;0.60;;
81176;SDS011;70786;48.272;14.200;2023-09-19T10:20:33;2.22;;;0.85;;
81176;SDS011;70786;48.272;14.200;2023-09-19T10:25:36;2.55;;;0.90;;
81176;SDS011;70786;48.272;14.200;2023-09-19T10:28:02;7.68;;;2.20;;
81176;SDS011;70786;48.272;14.200;2023-09-19T10:30:29;1.63;;;0.95;;
81176;SDS011;70786;48.272;14.200;2023-09-19T10:32:57;1.33;;;0.60;;
81176;SDS011;70786;48.272;14.200;2023-09-19T10:35:25;2.25;;;0.90;;
81176;SDS011;70786;48.272;14.200;2023-09-19T10:37:51;1.65;;;0.80;;
81176;SDS011;70786;48.272;14.200;2023-09-19T10:40:19;2.67;;;0.95;;
81176;SDS011;70786;48.272;14.200;2023-09-19T10:42:46;2.10;;;1.00;;
81176;SDS011;70786;48.272;14.200;2023-09-19T10:45:13;0.98;;;0.77;;
81176;SDS011;70786;48.272;14.200;2023-09-19T10:47:41;1.27;;;0.90;;
81176;SDS011;70786;48.272;14.200;2023-09-19T10:50:06;1.13;;;0.70;;
81176;SDS011;70786;48.272;14.200;2023-09-19T10:52:39;2.15;;;0.80;;
81176;SDS011;70786;48.272;14.200;2023-09-19T10:55:06;1.83;;;0.80;;
81176;SDS011;70786;48.272;14.200;2023-09-19T10:57:32;2.53;;;0.98;;
81176;SDS011;70786;48.272;14.200;2023-09-19T11:00:06;0.85;;;0.60;;
81176;SDS011;70786;48.272;14.200;2023-09-19T11:05:37;1.10;;;0.90;;
81176;SDS011;70786;48.272;14.200;2023-09-19T11:08:09;1.08;;;0.80;;
81176;SDS011;70786;48.272;14.200;2023-09-19T11:10:46;3.80;;;0.90;;
81176;SDS011;70786;48.272;14.200;2023-09-19T11:13:25;2.20;;;0.80;;
81176;SDS011;70786;48.272;14.200;2023-09-19T11:26:50;1.00;;;0.63;;
81176;SDS011;70786;48.272;14.200;2023-09-19T11:29:26;2.25;;;0.80;;
81176;SDS011;70786;48.272;14.200;2023-09-19T11:31:54;0.93;;;0.70;;
81176;SDS011;70786;48.272;14.200;2023-09-19T11:39:37;2.15;;;1.02;;
81176;SDS011;70786;48.272;14.200;2023-09-19T11:44:49;3.83;;;1.52;;
81176;SDS011;70786;48.272;14.200;2023-09-19T11:47:17;2.10;;;1.00;;
81176;SDS011;70786;48.272;14.200;2023-09-19T11:49:44;1.58;;;0.90;;
81176;SDS011;70786;48.272;14.200;2023-09-19T11:52:10;2.15;;;0.80;;
81176;SDS011;70786;48.272;14.200;2023-09-19T11:54:37;1.02;;;0.70;;
81176;SDS011;70786;48.272;14.200;2023-09-19T11:57:05;1.65;;;0.70;;
81176;SDS011;70786;48.272;14.200;2023-09-19T11:59:32;1.05;;;0.75;;
81176;SDS011;70786;48.272;14.200;2023-09-19T12:02:03;1.25;;;1.00;;
81176;SDS011;70786;48.272;14.200;2023-09-19T12:04:34;0.80;;;0.68;;
81176;SDS011;70786;48.272;14.200;2023-09-19T12:07:03;2.85;;;0.80;;
81176;SDS011;70786;48.272;14.200;2023-09-19T12:09:30;1.42;;;0.63;;
81176;SDS011;70786;48.272;14.200;2023-09-19T12:11:55;1.63;;;0.70;;
81176;SDS011;70786;48.272;14.200;2023-09-19T12:14:23;1.77;;;0.80;;
81176;SDS011;70786;48.272;14.200;2023-09-19T12:16:53;1.85;;;0.90;;
81176;SDS011;70786;48.272;14.200;2023-09-19T12:19:21;5.05;;;1.17;;
81176;SDS011;70786;48.272;14.200;2023-09-19T12:21:54;2.50;;;0.90;;
81176;SDS011;70786;48.272;14.200;2023-09-19T12:24:19;2.95;;;0.80;;
81176;SDS011;70786;48.272;14.200;2023-09-19T12:26:46;2.60;;;0.90;;
81176;SDS011;70786;48.272;14.200;2023-09-19T12:29:21;2.40;;;1.05;;
81176;SDS011;70786;48.272;14.200;2023-09-19T12:31:54;1.77;;;0.75;;
81176;SDS011;70786;48.272;14.200;2023-09-19T12:34:23;1.05;;;0.60;;
81176;SDS011;70786;48.272;14.200;2023-09-19T12:37:10;1.60;;;0.70;;
81176;SDS011;70786;48.272;14.200;2023-09-19T12:39:49;1.55;;;0.80;;
81176;SDS011;70786;48.272;14.200;2023-09-19T12:42:20;1.30;;;0.80;;
81176;SDS011;70786;48.272;14.200;2023-09-19T12:44:47;1.23;;;0.80;;
81176;SDS011;70786;48.272;14.200;2023-09-19T12:47:15;2.63;;;0.90;;
81176;SDS011;70786;48.272;14.200;2023-09-19T12:52:34;1.17;;;0.70;;
81176;SDS011;70786;48.272;14.200;2023-09-19T12:55:01;1.23;;;0.60;;
81176;SDS011;70786;48.272;14.200;2023-09-19T12:57:28;2.38;;;0.70;;
81176;SDS011;70786;48.272;14.200;2023-09-19T13:00:01;1.23;;;0.70;;
81176;SDS011;70786;48.272;14.200;2023-09-19T13:02:28;1.02;;;0.68;;
81176;SDS011;70786;48.272;14.200;2023-09-19T13:04:54;1.40;;;0.73;;
81176;SDS011;70786;48.272;14.200;2023-09-19T13:07:43;2.22;;;0.80;;
81176;SDS011;70786;48.272;14.200;2023-09-19T13:10:09;1.10;;;0.50;;
81176;SDS011;70786;48.272;14.200;2023-09-19T13:12:36;2.00;;;0.65;;
81176;SDS011;70786;48.272;14.200;2023-09-19T13:15:11;1.50;;;0.65;;
81176;SDS011;70786;48.272;14.200;2023-09-19T13:17:45;0.70;;;0.50;;
81176;SDS011;70786;48.272;14.200;2023-09-19T13:20:22;0.40;;;0.40;;
81176;SDS011;70786;48.272;14.200;2023-09-19T13:22:53;0.90;;;0.70;;
81176;SDS011;70786;48.272;14.200;2023-09-19T13:25:35;1.65;;;1.08;;
81176;SDS011;70786;48.272;14.200;2023-09-19T13:28:01;1.33;;;0.60;;
81176;SDS011;70786;48.272;14.200;2023-09-19T13:30:30;1.38;;;0.50;;
81176;SDS011;70786;48.272;14.200;2023-09-19T13:33:09;1.67;;;0.60;;
81176;SDS011;70786;48.272;14.200;2023-09-19T13:35:36;1.55;;;0.45;;
81176;SDS011;70786;48.272;14.200;2023-09-19T13:38:05;6.25;;;0.60;;
81176;SDS011;70786;48.272;14.200;2023-09-19T13:40:32;1.42;;;0.47;;
81176;SDS011;70786;48.272;14.200;2023-09-19T13:43:00;1.08;;;0.40;;
81176;SDS011;70786;48.272;14.200;2023-09-19T13:45:26;0.70;;;0.30;;
81176;SDS011;70786;48.272;14.200;2023-09-19T13:47:52;2.03;;;0.30;;
81176;SDS011;70786;48.272;14.200;2023-09-19T13:50:22;0.73;;;0.50;;
81176;SDS011;70786;48.272;14.200;2023-09-19T13:52:54;0.70;;;0.38;;
81176;SDS011;70786;48.272;14.200;2023-09-19T13:55:20;1.42;;;0.35;;
81176;SDS011;70786;48.272;14.200;2023-09-19T13:57:48;0.50;;;0.40;;
81176;SDS011;70786;48.272;14.200;2023-09-19T14:00:20;2.00;;;0.50;;
81176;SDS011;70786;48.272;14.200;2023-09-19T14:02:46;1.13;;;0.47;;
81176;SDS011;70786;48.272;14.200;2023-09-19T14:05:14;0.77;;;0.38;;
81176;SDS011;70786;48.272;14.200;2023-09-19T14:07:42;0.38;;;0.20;;
81176;SDS011;70786;48.272;14.200;2023-09-19T14:10:08;1.95;;;0.40;;
81176;SDS011;70786;48.272;14.200;2023-09-19T14:12:34;1.70;;;0.45;;
81176;SDS011;70786;48.272;14.200;2023-09-19T14:15:00;1.27;;;0.50;;
81176;SDS011;70786;48.272;14.200;2023-09-19T14:17:25;0.70;;;0.50;;
81176;SDS011;70786;48.272;14.200;2023-09-19T14:19:52;1.08;;;0.57;;
81176;SDS011;70786;48.272;14.200;2023-09-19T14:22:17;0.28;;;0.25;;
81176;SDS011;70786;48.272;14.200;2023-09-19T14:24:43;0.90;;;0.50;;
81176;SDS011;70786;48.272;14.200;2023-09-19T14:27:09;1.10;;;0.40;;
81176;SDS011;70786;48.272;14.200;2023-09-19T14:29:35;1.30;;;0.70;;
81176;SDS011;70786;48.272;14.200;2023-09-19T14:32:01;1.40;;;0.55;;
81176;SDS011;70786;48.272;14.200;2023-09-19T14:34:27;0.80;;;0.45;;
81176;SDS011;70786;48.272;14.200;2023-09-19T14:36:53;0.90;;;0.55;;
81176;SDS011;70786;48.272;14.200;2023-09-19T14:39:19;1.70;;;0.50;;
81176;SDS011;70786;48.272;14.200;2023-09-19T14:41:45;0.75;;;0.60;;
81176;SDS011;70786;48.272;14.200;2023-09-19T14:44:11;0.93;;;0.40;;
81176;SDS011;70786;48.272;14.200;2023-09-19T14:46:36;0.95;;;0.57;;
81176;SDS011;70786;48.272;14.200;2023-09-19T14:49:02;0.60;;;0.40;;
81176;SDS011;70786;48.272;14.200;2023-09-19T14:51:30;1.27;;;0.40;;
81176;SDS011;70786;48.272;14.200;2023-09-19T14:53:55;0.63;;;0.40;;
81176;SDS011;70786;48.272;14.200;2023-09-19T14:56:22;1.08;;;0.63;;
81176;SDS011;70786;48.272;14.200;2023-09-19T14:58:49;2.67;;;0.50;;
81176;SDS011;70786;48.272;14.200;2023-09-19T15:01:14;1.27;;;0.52;;
81176;SDS011;70786;48.272;14.200;2023-09-19T15:03:41;2.13;;;0.52;;
81176;SDS011;70786;48.272;14.200;2023-09-19T15:06:11;2.50;;;0.85;;
81176;SDS011;70786;48.272;14.200;2023-09-19T15:08:40;1.83;;;0.50;;
81176;SDS011;70786;48.272;14.200;2023-09-19T15:11:11;1.40;;;0.60;;
81176;SDS011;70786;48.272;14.200;2023-09-19T15:13:38;1.58;;;0.65;;
81176;SDS011;70786;48.272;14.200;2023-09-19T15:16:04;0.68;;;0.50;;
81176;SDS011;70786;48.272;14.200;2023-09-19T15:18:30;0.60;;;0.50;;
81176;SDS011;70786;48.272;14.200;2023-09-19T15:20:56;0.80;;;0.47;;
81176;SDS011;70786;48.272;14.200;2023-09-19T15:23:22;2.25;;;0.63;;
81176;SDS011;70786;48.272;14.200;2023-09-19T15:25:48;2.35;;;0.60;;
81176;SDS011;70786;48.272;14.200;2023-09-19T15:28:14;0.60;;;0.50;;
81176;SDS011;70786;48.272;14.200;2023-09-19T15:30:40;0.70;;;0.40;;